createdAt,value
2019-01-18T00:00:43.860Z,1005.62
2019-01-18T00:01:43.822Z,1005.63
2019-01-18T00:02:43.788Z,1005.67
2019-01-18T00:03:43.748Z,1005.63
2019-01-18T00:04:43.711Z,1005.64
2019-01-18T00:05:43.678Z,1005.67
2019-01-18T00:06:43.639Z,1005.70
2019-01-18T00:07:43.604Z,1005.70
2019-01-18T00:08:43.566Z,1005.71
2019-01-18T00:09:43.531Z,1005.74
2019-01-18T00:10:43.494Z,1005.77
2019-01-18T00:11:43.454Z,1005.78
2019-01-18T00:12:43.418Z,1005.82
2019-01-18T00:13:43.382Z,1005.85
2019-01-18T00:14:43.346Z,1005.85
2019-01-18T00:15:43.307Z,1005.91
2019-01-18T00:16:43.272Z,1005.93
2019-01-18T00:17:43.234Z,1005.93
2019-01-18T00:18:43.197Z,1005.97
2019-01-18T00:19:43.161Z,1005.93
2019-01-18T00:20:43.125Z,1005.97
2019-01-18T00:21:43.087Z,1006.03
2019-01-18T00:22:43.051Z,1006.02
2019-01-18T00:23:43.013Z,1006.04
2019-01-18T00:24:42.976Z,1006.03
2019-01-18T00:25:42.941Z,1006.00
2019-01-18T00:26:42.910Z,1006.05
2019-01-18T00:27:42.871Z,1006.04
2019-01-18T00:28:42.830Z,1006.06
2019-01-18T00:29:42.796Z,1006.07
2019-01-18T00:30:42.803Z,1006.09
2019-01-18T00:31:42.720Z,1006.16
2019-01-18T00:32:42.684Z,1006.15
2019-01-18T00:33:42.646Z,1006.16
2019-01-18T00:34:42.609Z,1006.23
2019-01-18T00:35:42.572Z,1006.20
2019-01-18T00:36:42.536Z,1006.27
2019-01-18T00:37:42.499Z,1006.34
2019-01-18T00:38:42.462Z,1006.30
2019-01-18T00:39:42.428Z,1006.34
2019-01-18T00:40:42.391Z,1006.36
2019-01-18T00:41:42.353Z,1006.38
2019-01-18T00:42:42.318Z,1006.38
2019-01-18T00:43:42.279Z,1006.36
2019-01-18T00:44:42.243Z,1006.38
2019-01-18T00:45:42.210Z,1006.40
2019-01-18T00:46:42.171Z,1006.42
2019-01-18T00:47:42.132Z,1006.45
2019-01-18T00:48:42.097Z,1006.42
2019-01-18T00:49:42.061Z,1006.44
2019-01-18T00:50:42.025Z,1006.47
2019-01-18T00:51:41.987Z,1006.53
2019-01-18T00:52:41.950Z,1006.51
2019-01-18T00:53:41.915Z,1006.52
2019-01-18T00:54:41.878Z,1006.60
2019-01-18T00:55:41.842Z,1006.54
2019-01-18T00:56:41.803Z,1006.59
2019-01-18T00:57:41.769Z,1006.66
2019-01-18T00:58:41.730Z,1006.63
2019-01-18T00:59:41.694Z,1006.65
2019-01-18T01:00:41.658Z,1006.66
2019-01-18T01:01:41.621Z,1006.70
2019-01-18T01:02:41.587Z,1006.71
2019-01-18T01:03:41.546Z,1006.69
2019-01-18T01:04:41.511Z,1006.69
2019-01-18T01:05:41.475Z,1006.72
2019-01-18T01:06:41.438Z,1006.65
2019-01-18T01:07:41.401Z,1006.67
2019-01-18T01:08:41.364Z,1006.68
2019-01-18T01:09:41.328Z,1006.67
2019-01-18T01:10:41.290Z,1006.68
2019-01-18T01:11:41.253Z,1006.73
2019-01-18T01:12:41.218Z,1006.78
2019-01-18T01:13:41.181Z,1006.82
2019-01-18T01:14:41.143Z,1006.82
2019-01-18T01:15:41.106Z,1006.90
2019-01-18T01:16:41.069Z,1006.89
2019-01-18T01:17:41.036Z,1006.90
2019-01-18T01:18:40.997Z,1006.97
2019-01-18T01:19:40.961Z,1007.08
2019-01-18T01:20:40.922Z,1007.11
2019-01-18T01:21:40.886Z,1007.14
2019-01-18T01:22:40.852Z,1007.16
2019-01-18T01:23:40.811Z,1007.15
2019-01-18T01:24:40.775Z,1007.25
2019-01-18T01:25:40.742Z,1007.29
2019-01-18T01:26:40.702Z,1007.31
2019-01-18T01:27:40.662Z,1007.31
2019-01-18T01:28:40.626Z,1007.36
2019-01-18T01:29:43.187Z,1007.37
2019-01-18T01:30:40.552Z,1007.34
2019-01-18T01:31:40.514Z,1007.42
2019-01-18T01:32:40.478Z,1007.44
2019-01-18T01:33:40.441Z,1007.44
2019-01-18T01:34:40.404Z,1007.49
2019-01-18T01:35:40.366Z,1007.52
2019-01-18T01:36:40.329Z,1007.55
2019-01-18T01:37:40.294Z,1007.55
2019-01-18T01:38:40.254Z,1007.61
2019-01-18T01:39:40.215Z,1007.65
2019-01-18T01:40:40.179Z,1007.67
2019-01-18T01:41:40.142Z,1007.67
2019-01-18T01:42:40.105Z,1007.69
2019-01-18T01:43:40.067Z,1007.69
2019-01-18T01:44:40.030Z,1007.87
2019-01-18T01:45:39.993Z,1007.78
2019-01-18T01:46:39.956Z,1007.77
2019-01-18T01:47:39.920Z,1007.84
2019-01-18T01:48:39.880Z,1007.84
2019-01-18T01:49:39.843Z,1007.89
2019-01-18T01:50:39.807Z,1007.99
2019-01-18T01:51:39.772Z,1007.91
2019-01-18T01:52:39.732Z,1007.94
2019-01-18T01:53:39.694Z,1007.98
2019-01-18T01:54:39.657Z,1008.02
2019-01-18T01:55:39.620Z,1008.06
2019-01-18T01:56:39.584Z,1008.10
2019-01-18T01:57:39.544Z,1008.16
2019-01-18T01:58:39.507Z,1008.18
2019-01-18T01:59:39.470Z,1008.21
2019-01-18T02:00:39.431Z,1008.25
2019-01-18T02:01:39.395Z,1008.29
2019-01-18T02:02:39.358Z,1008.24
2019-01-18T02:03:39.320Z,1008.31
2019-01-18T02:04:39.282Z,1008.31
2019-01-18T02:05:39.245Z,1008.34
2019-01-18T02:06:39.208Z,1008.34
2019-01-18T02:07:39.170Z,1008.37
2019-01-18T02:08:39.131Z,1008.39
2019-01-18T02:09:39.097Z,1008.49
2019-01-18T02:10:39.058Z,1008.47
2019-01-18T02:11:39.019Z,1008.43
2019-01-18T02:12:38.982Z,1008.44
2019-01-18T02:13:38.945Z,1008.45
2019-01-18T02:14:38.911Z,1008.43
2019-01-18T02:15:38.870Z,1008.56
2019-01-18T02:16:38.833Z,1008.62
2019-01-18T02:17:38.795Z,1008.63
2019-01-18T02:18:38.757Z,1008.64
2019-01-18T02:19:38.719Z,1008.70
2019-01-18T02:20:38.682Z,1008.79
2019-01-18T02:21:38.646Z,1008.80
2019-01-18T02:22:38.609Z,1008.80
2019-01-18T02:23:38.571Z,1008.87
2019-01-18T02:24:38.532Z,1008.90
2019-01-18T02:25:38.495Z,1008.87
2019-01-18T02:26:38.459Z,1008.91
2019-01-18T02:27:38.421Z,1008.93
2019-01-18T02:28:38.384Z,1008.96
2019-01-18T02:29:38.346Z,1008.97
2019-01-18T02:30:38.309Z,1008.95
2019-01-18T02:31:38.273Z,1008.99
2019-01-18T02:32:38.242Z,1009.00
2019-01-18T02:33:38.196Z,1009.03
2019-01-18T02:34:38.159Z,1009.06
2019-01-18T02:35:38.122Z,1009.09
2019-01-18T02:36:38.084Z,1009.12
2019-01-18T02:37:38.049Z,1009.12
2019-01-18T02:38:38.013Z,1009.14
2019-01-18T02:39:37.973Z,1009.22
2019-01-18T02:40:37.935Z,1009.15
2019-01-18T02:41:37.898Z,1009.18
2019-01-18T02:42:37.862Z,1009.22
2019-01-18T02:43:37.823Z,1009.23
2019-01-18T02:44:37.790Z,1009.30
2019-01-18T02:45:37.753Z,1009.31
2019-01-18T02:46:37.713Z,1009.31
2019-01-18T02:47:37.673Z,1009.31
2019-01-18T02:48:37.639Z,1009.35
2019-01-18T02:49:37.604Z,1009.34
2019-01-18T02:50:37.563Z,1009.36
2019-01-18T02:51:37.524Z,1009.43
2019-01-18T02:52:37.486Z,1009.45
2019-01-18T02:53:37.457Z,1009.40
2019-01-18T02:54:37.413Z,1009.44
2019-01-18T02:55:37.375Z,1009.48
2019-01-18T02:56:37.339Z,1009.45
2019-01-18T02:57:37.302Z,1009.48
2019-01-18T02:58:37.264Z,1009.48
2019-01-18T02:59:37.226Z,1009.52
2019-01-18T03:00:37.191Z,1009.54
2019-01-18T03:01:37.154Z,1009.58
2019-01-18T03:02:37.115Z,1009.61
2019-01-18T03:03:37.082Z,1009.69
2019-01-18T03:04:37.040Z,1009.66
2019-01-18T03:05:37.004Z,1009.71
2019-01-18T03:06:36.969Z,1009.73
2019-01-18T03:07:36.928Z,1009.81
2019-01-18T03:08:36.892Z,1009.77
2019-01-18T03:09:36.855Z,1009.78
2019-01-18T03:10:36.823Z,1009.83
2019-01-18T03:11:36.779Z,1009.85
2019-01-18T03:12:36.743Z,1009.85
2019-01-18T03:13:36.706Z,1009.94
2019-01-18T03:14:36.669Z,1009.89
2019-01-18T03:15:36.631Z,1009.92
2019-01-18T03:16:36.597Z,1009.93
2019-01-18T03:17:36.555Z,1009.98
2019-01-18T03:18:36.520Z,1010.04
2019-01-18T03:19:36.480Z,1010.07
2019-01-18T03:20:36.448Z,1010.04
2019-01-18T03:21:36.407Z,1010.11
2019-01-18T03:22:36.369Z,1010.14
2019-01-18T03:23:36.333Z,1010.14
2019-01-18T03:24:36.296Z,1010.14
2019-01-18T03:25:36.257Z,1010.17
2019-01-18T03:26:36.220Z,1010.18
2019-01-18T03:27:36.185Z,1010.21
2019-01-18T03:28:36.149Z,1010.21
2019-01-18T03:29:36.109Z,1010.28
2019-01-18T03:30:36.074Z,1010.32
2019-01-18T03:31:36.034Z,1010.37
2019-01-18T03:32:35.997Z,1010.35
2019-01-18T03:33:35.960Z,1010.39
2019-01-18T03:34:35.921Z,1010.40
2019-01-18T03:35:35.884Z,1010.38
2019-01-18T03:36:35.848Z,1010.42
2019-01-18T03:37:35.808Z,1010.43
2019-01-18T03:38:35.773Z,1010.42
2019-01-18T03:39:35.734Z,1010.44
2019-01-18T03:40:35.697Z,1010.45
2019-01-18T03:41:35.661Z,1010.48
2019-01-18T03:42:35.621Z,1010.54
2019-01-18T03:43:35.585Z,1010.52
2019-01-18T03:44:35.547Z,1010.58
2019-01-18T03:45:35.510Z,1010.56
2019-01-18T03:46:35.471Z,1010.69
2019-01-18T03:47:35.442Z,1010.69
2019-01-18T03:48:35.396Z,1010.69
2019-01-18T03:49:35.358Z,1010.74
2019-01-18T03:50:35.324Z,1010.73
2019-01-18T03:51:35.282Z,1010.73
2019-01-18T03:52:35.245Z,1010.76
2019-01-18T03:53:35.209Z,1010.74
2019-01-18T03:54:35.171Z,1010.79
2019-01-18T03:55:35.133Z,1010.83
2019-01-18T03:56:35.096Z,1010.79
2019-01-18T03:57:35.057Z,1010.87
2019-01-18T03:58:35.021Z,1010.89
2019-01-18T03:59:34.980Z,1010.94
2019-01-18T04:00:34.942Z,1010.91
2019-01-18T04:01:34.906Z,1010.95
2019-01-18T04:02:34.870Z,1010.97
2019-01-18T04:03:34.830Z,1010.97
2019-01-18T04:04:34.792Z,1011.01
2019-01-18T04:05:34.754Z,1011.02
2019-01-18T04:06:34.717Z,1010.96
2019-01-18T04:07:34.679Z,1011.00
2019-01-18T04:08:34.642Z,1011.00
2019-01-18T04:09:34.607Z,1011.04
2019-01-18T04:10:34.564Z,1011.03
2019-01-18T04:11:34.526Z,1011.07
2019-01-18T04:12:34.488Z,1011.10
2019-01-18T04:13:34.452Z,1011.15
2019-01-18T04:14:34.412Z,1011.20
2019-01-18T04:15:34.374Z,1011.20
2019-01-18T04:16:34.339Z,1011.19
2019-01-18T04:17:34.300Z,1011.24
2019-01-18T04:18:34.261Z,1011.22
2019-01-18T04:19:34.222Z,1011.26
2019-01-18T04:20:34.183Z,1011.26
2019-01-18T04:21:34.147Z,1011.35
2019-01-18T04:22:34.109Z,1011.33
2019-01-18T04:23:34.072Z,1011.37
2019-01-18T04:24:34.032Z,1011.38
2019-01-18T04:25:33.995Z,1011.41
2019-01-18T04:26:33.957Z,1011.47
2019-01-18T04:27:33.916Z,1011.47
2019-01-18T04:28:33.881Z,1011.51
2019-01-18T04:29:33.907Z,1011.49
2019-01-18T04:30:33.913Z,1011.51
2019-01-18T04:31:33.764Z,1011.53
2019-01-18T04:32:33.829Z,1011.53
2019-01-18T04:33:33.690Z,1011.52
2019-01-18T04:34:33.651Z,1011.56
2019-01-18T04:35:33.613Z,1011.56
2019-01-18T04:36:33.575Z,1011.57
2019-01-18T04:37:33.536Z,1011.59
2019-01-18T04:38:33.498Z,1011.59
2019-01-18T04:39:33.460Z,1011.62
2019-01-18T04:40:33.421Z,1011.63
2019-01-18T04:41:33.385Z,1011.67
2019-01-18T04:42:33.352Z,1011.67
2019-01-18T04:43:33.308Z,1011.72
2019-01-18T04:44:33.269Z,1011.73
2019-01-18T04:45:33.231Z,1011.74
2019-01-18T04:46:33.200Z,1011.77
2019-01-18T04:47:33.154Z,1011.76
2019-01-18T04:48:33.118Z,1011.78
2019-01-18T04:49:33.078Z,1011.77
2019-01-18T04:50:33.041Z,1011.86
2019-01-18T04:51:33.001Z,1011.85
2019-01-18T04:52:32.963Z,1011.82
2019-01-18T04:53:32.927Z,1011.85
2019-01-18T04:54:32.887Z,1011.85
2019-01-18T04:55:32.847Z,1011.87
2019-01-18T04:56:32.810Z,1011.87
2019-01-18T04:57:32.772Z,1011.86
2019-01-18T04:58:32.734Z,1011.89
2019-01-18T04:59:32.701Z,1011.92
2019-01-18T05:00:32.656Z,1011.90
2019-01-18T05:01:32.623Z,1011.95
2019-01-18T05:02:32.585Z,1011.92
2019-01-18T05:03:32.543Z,1011.96
2019-01-18T05:04:32.511Z,1012.03
2019-01-18T05:05:32.467Z,1012.00
2019-01-18T05:06:32.429Z,1012.02
2019-01-18T05:07:32.389Z,1012.06
2019-01-18T05:08:32.370Z,1012.08
2019-01-18T05:09:32.311Z,1012.11
2019-01-18T05:10:32.275Z,1012.09
2019-01-18T05:11:32.234Z,1012.14
2019-01-18T05:12:32.197Z,1012.15
2019-01-18T05:13:32.159Z,1012.16
2019-01-18T05:14:32.121Z,1012.21
2019-01-18T05:15:32.081Z,1012.23
2019-01-18T05:16:32.045Z,1012.27
2019-01-18T05:17:32.005Z,1012.27
2019-01-18T05:18:31.967Z,1012.30
2019-01-18T05:19:31.930Z,1012.32
2019-01-18T05:20:31.888Z,1012.34
2019-01-18T05:21:31.851Z,1012.36
2019-01-18T05:22:31.811Z,1012.41
2019-01-18T05:23:31.774Z,1012.43
2019-01-18T05:24:31.735Z,1012.46
2019-01-18T05:25:31.700Z,1012.47
2019-01-18T05:26:31.660Z,1012.51
2019-01-18T05:27:31.620Z,1012.52
2019-01-18T05:28:31.584Z,1012.53
2019-01-18T05:29:31.543Z,1012.63
2019-01-18T05:30:31.506Z,1012.67
2019-01-18T05:31:31.465Z,1012.69
2019-01-18T05:32:31.428Z,1012.70
2019-01-18T05:33:31.398Z,1012.77
2019-01-18T05:34:31.350Z,1012.83
2019-01-18T05:35:31.311Z,1012.81
2019-01-18T05:36:31.274Z,1012.81
2019-01-18T05:37:31.235Z,1012.85
2019-01-18T05:38:31.196Z,1012.88
2019-01-18T05:39:31.156Z,1012.88
2019-01-18T05:40:31.119Z,1012.95
2019-01-18T05:41:31.079Z,1012.98
2019-01-18T05:42:31.042Z,1013.01
2019-01-18T05:43:31.004Z,1013.00
2019-01-18T05:44:30.965Z,1013.03
2019-01-18T05:45:30.925Z,1013.07
2019-01-18T05:46:30.886Z,1013.11
2019-01-18T05:47:30.847Z,1013.09
2019-01-18T05:48:30.810Z,1013.11
2019-01-18T05:49:30.773Z,1013.18
2019-01-18T05:50:30.734Z,1013.19
2019-01-18T05:51:30.692Z,1013.21
2019-01-18T05:52:30.656Z,1013.22
2019-01-18T05:53:30.619Z,1013.28
2019-01-18T05:54:30.585Z,1013.29
2019-01-18T05:55:30.543Z,1013.28
2019-01-18T05:56:30.502Z,1013.30
2019-01-18T05:57:30.463Z,1013.34
2019-01-18T05:58:31.246Z,1013.36
2019-01-18T05:59:30.386Z,1013.40
2019-01-18T06:00:30.359Z,1013.41
2019-01-18T06:01:30.414Z,1013.43
2019-01-18T06:02:30.270Z,1013.39
2019-01-18T06:03:30.229Z,1013.43
2019-01-18T06:04:30.190Z,1013.43
2019-01-18T06:05:30.152Z,1013.47
2019-01-18T06:06:30.113Z,1013.46
2019-01-18T06:07:30.081Z,1013.51
2019-01-18T06:08:30.038Z,1013.57
2019-01-18T06:09:30.002Z,1013.60
2019-01-18T06:10:29.960Z,1013.58
2019-01-18T06:11:29.921Z,1013.61
2019-01-18T06:12:29.880Z,1013.59
2019-01-18T06:13:29.842Z,1013.60
2019-01-18T06:14:29.805Z,1013.68
2019-01-18T06:15:29.765Z,1013.67
2019-01-18T06:16:29.729Z,1013.69
2019-01-18T06:17:29.688Z,1013.71
2019-01-18T06:18:29.649Z,1013.73
2019-01-18T06:19:29.609Z,1013.75
2019-01-18T06:20:29.571Z,1013.79
2019-01-18T06:21:29.533Z,1013.78
2019-01-18T06:22:29.496Z,1013.83
2019-01-18T06:23:29.454Z,1013.79
2019-01-18T06:24:29.415Z,1013.77
2019-01-18T06:25:29.377Z,1013.82
2019-01-18T06:26:29.337Z,1013.81
2019-01-18T06:27:29.301Z,1013.85
2019-01-18T06:28:29.259Z,1013.89
2019-01-18T06:29:29.222Z,1013.90
2019-01-18T06:30:29.187Z,1013.93
2019-01-18T06:31:29.143Z,1013.98
2019-01-18T06:32:29.104Z,1013.97
2019-01-18T06:33:29.979Z,1014.01
2019-01-18T06:34:29.028Z,1014.04
2019-01-18T06:35:28.987Z,1014.04
2019-01-18T06:36:28.949Z,1014.10
2019-01-18T06:37:28.910Z,1014.10
2019-01-18T06:38:28.871Z,1014.07
2019-01-18T06:39:28.833Z,1014.11
2019-01-18T06:40:28.792Z,1014.13
2019-01-18T06:41:28.753Z,1014.11
2019-01-18T06:42:28.716Z,1014.10
2019-01-18T06:43:28.678Z,1014.10
2019-01-18T06:44:28.639Z,1014.09
2019-01-18T06:45:28.601Z,1014.13
2019-01-18T06:46:28.561Z,1014.18
2019-01-18T06:47:28.521Z,1014.24
2019-01-18T06:48:28.492Z,1014.24
2019-01-18T06:49:28.443Z,1014.24
2019-01-18T06:50:28.404Z,1014.27
2019-01-18T06:51:28.366Z,1014.21
2019-01-18T06:52:28.327Z,1014.25
2019-01-18T06:53:28.289Z,1014.28
2019-01-18T06:54:28.251Z,1014.30
2019-01-18T06:55:28.209Z,1014.29
2019-01-18T06:56:28.171Z,1014.32
2019-01-18T06:57:28.131Z,1014.30
2019-01-18T06:58:28.094Z,1014.33
2019-01-18T06:59:28.054Z,1014.35
2019-01-18T07:00:28.014Z,1014.33
2019-01-18T07:01:27.976Z,1014.39
2019-01-18T07:02:27.937Z,1014.37
2019-01-18T07:03:27.900Z,1014.42
2019-01-18T07:04:27.860Z,1014.45
2019-01-18T07:05:27.822Z,1014.48
2019-01-18T07:06:27.782Z,1014.45
2019-01-18T07:07:27.740Z,1014.48
2019-01-18T07:08:27.701Z,1014.48
2019-01-18T07:09:27.663Z,1014.50
2019-01-18T07:10:27.624Z,1014.49
2019-01-18T07:11:27.585Z,1014.52
2019-01-18T07:12:27.545Z,1014.52
2019-01-18T07:13:27.506Z,1014.51
2019-01-18T07:14:27.468Z,1014.58
2019-01-18T07:15:27.428Z,1014.58
2019-01-18T07:16:27.388Z,1014.61
2019-01-18T07:17:27.351Z,1014.65
2019-01-18T07:18:27.312Z,1014.68
2019-01-18T07:19:27.270Z,1014.71
2019-01-18T07:20:27.233Z,1014.71
2019-01-18T07:21:27.192Z,1014.72
2019-01-18T07:22:27.154Z,1014.73
2019-01-18T07:23:27.114Z,1014.72
2019-01-18T07:24:27.076Z,1014.74
2019-01-18T07:25:27.037Z,1014.69
2019-01-18T07:26:26.998Z,1014.72
2019-01-18T07:27:26.958Z,1014.73
2019-01-18T07:28:26.918Z,1014.73
2019-01-18T07:29:26.881Z,1014.73
2019-01-18T07:30:26.842Z,1014.76
2019-01-18T07:31:26.801Z,1014.75
2019-01-18T07:32:26.762Z,1014.71
2019-01-18T07:33:26.723Z,1014.74
2019-01-18T07:34:26.685Z,1014.71
2019-01-18T07:35:26.644Z,1014.76
2019-01-18T07:36:26.606Z,1014.87
2019-01-18T07:37:26.567Z,1014.94
2019-01-18T07:38:26.528Z,1014.95
2019-01-18T07:39:26.488Z,1014.95
2019-01-18T07:40:26.449Z,1014.96
2019-01-18T07:41:26.413Z,1014.94
2019-01-18T07:42:26.372Z,1014.99
2019-01-18T07:43:26.331Z,1014.97
2019-01-18T07:44:26.292Z,1015.02
2019-01-18T07:45:26.255Z,1015.02
2019-01-18T07:46:26.216Z,1015.03
2019-01-18T07:47:26.177Z,1015.03
2019-01-18T07:48:26.138Z,1014.99
2019-01-18T07:49:26.097Z,1015.00
2019-01-18T07:50:26.058Z,1015.03
2019-01-18T07:51:26.022Z,1015.04
2019-01-18T07:52:25.979Z,1014.99
2019-01-18T07:53:25.942Z,1015.04
2019-01-18T07:54:25.902Z,1015.03
2019-01-18T07:55:25.863Z,1015.06
2019-01-18T07:56:25.824Z,1015.14
2019-01-18T07:57:25.784Z,1015.09
2019-01-18T07:58:25.745Z,1015.13
2019-01-18T07:59:25.721Z,1015.14
2019-01-18T08:00:25.689Z,1015.21
2019-01-18T08:01:25.631Z,1015.18
2019-01-18T08:02:25.590Z,1015.18
2019-01-18T08:03:25.549Z,1015.21
2019-01-18T08:04:25.518Z,1015.24
2019-01-18T08:05:25.472Z,1015.20
2019-01-18T08:06:25.434Z,1015.20
2019-01-18T08:07:25.394Z,1015.21
2019-01-18T08:08:25.355Z,1015.18
2019-01-18T08:09:25.340Z,1015.16
2019-01-18T08:10:25.282Z,1015.23
2019-01-18T08:11:25.238Z,1015.22
2019-01-18T08:12:25.199Z,1015.24
2019-01-18T08:13:25.161Z,1015.30
2019-01-18T08:14:25.122Z,1015.29
2019-01-18T08:15:25.083Z,1015.32
2019-01-18T08:16:25.046Z,1015.36
2019-01-18T08:17:25.007Z,1015.35
2019-01-18T08:18:24.968Z,1015.38
2019-01-18T08:19:24.929Z,1015.39
2019-01-18T08:20:24.891Z,1015.40
2019-01-18T08:21:24.854Z,1015.34
2019-01-18T08:22:24.816Z,1015.39
2019-01-18T08:23:24.777Z,1015.41
2019-01-18T08:24:24.739Z,1015.41
2019-01-18T08:25:24.702Z,1015.43
2019-01-18T08:26:24.699Z,1015.43
2019-01-18T08:27:24.625Z,1015.44
2019-01-18T08:28:24.588Z,1015.45
2019-01-18T08:29:24.551Z,1015.43
2019-01-18T08:30:24.514Z,1015.47
2019-01-18T08:31:28.866Z,1015.45
2019-01-18T08:32:24.441Z,1015.45
2019-01-18T08:33:24.401Z,1015.48
2019-01-18T08:34:24.365Z,1015.48
2019-01-18T08:35:24.326Z,1015.43
2019-01-18T08:36:24.290Z,1015.45
2019-01-18T08:37:24.253Z,1015.51
2019-01-18T08:38:24.216Z,1015.54
2019-01-18T08:39:24.179Z,1015.58
2019-01-18T08:40:24.142Z,1015.64
2019-01-18T08:41:24.105Z,1015.67
2019-01-18T08:42:24.073Z,1015.70
2019-01-18T08:43:24.031Z,1015.69
2019-01-18T08:44:23.997Z,1015.69
2019-01-18T08:45:23.959Z,1015.69
2019-01-18T08:46:23.924Z,1015.70
2019-01-18T08:47:23.888Z,1015.65
2019-01-18T08:48:23.852Z,1015.67
2019-01-18T08:49:23.815Z,1015.67
2019-01-18T08:50:23.781Z,1015.72
2019-01-18T08:51:23.746Z,1015.73
2019-01-18T08:52:23.708Z,1015.74
2019-01-18T08:53:23.714Z,1015.77
2019-01-18T08:54:23.638Z,1015.78
2019-01-18T08:55:23.603Z,1015.82
2019-01-18T08:56:23.568Z,1015.83
2019-01-18T08:57:23.531Z,1015.82
2019-01-18T08:58:23.496Z,1015.84
2019-01-18T08:59:23.460Z,1015.83
2019-01-18T09:00:23.426Z,1015.84
2019-01-18T09:01:23.392Z,1015.83
2019-01-18T09:02:23.356Z,1015.85
2019-01-18T09:03:23.320Z,1015.86
2019-01-18T09:04:23.285Z,1015.87
2019-01-18T09:05:23.251Z,1015.88
2019-01-18T09:06:23.218Z,1015.92
2019-01-18T09:07:23.181Z,1015.91
2019-01-18T09:08:23.146Z,1015.90
2019-01-18T09:09:23.114Z,1015.95
2019-01-18T09:10:23.081Z,1016.00
2019-01-18T09:11:23.044Z,1015.99
2019-01-18T09:12:23.007Z,1015.99
2019-01-18T09:13:22.974Z,1016.00
2019-01-18T09:14:22.940Z,1016.05
2019-01-18T09:15:22.904Z,1016.04
2019-01-18T09:16:22.869Z,1016.09
2019-01-18T09:17:22.837Z,1016.07
2019-01-18T09:18:22.801Z,1016.06
2019-01-18T09:19:22.765Z,1016.05
2019-01-18T09:20:22.732Z,1016.07
2019-01-18T09:21:22.698Z,1016.06
2019-01-18T09:22:22.663Z,1016.09
2019-01-18T09:23:22.629Z,1016.06
2019-01-18T09:24:22.595Z,1016.11
2019-01-18T09:25:22.567Z,1016.09
2019-01-18T09:26:22.526Z,1016.08
2019-01-18T09:27:22.491Z,1016.07
2019-01-18T09:28:22.457Z,1016.03
2019-01-18T09:29:22.424Z,1016.05
2019-01-18T09:30:22.391Z,1016.07
2019-01-18T09:31:22.356Z,1016.09
2019-01-18T09:32:22.322Z,1016.09
2019-01-18T09:33:22.290Z,1016.10
2019-01-18T09:34:22.256Z,1016.09
2019-01-18T09:35:22.218Z,1016.09
2019-01-18T09:36:22.185Z,1016.10
2019-01-18T09:37:22.151Z,1016.12
2019-01-18T09:38:22.128Z,1016.14
2019-01-18T09:39:22.081Z,1016.10
2019-01-18T09:40:22.049Z,1016.18
2019-01-18T09:41:22.019Z,1016.17
2019-01-18T09:42:21.980Z,1016.21
2019-01-18T09:43:21.944Z,1016.13
2019-01-18T09:44:21.911Z,1016.20
2019-01-18T09:45:21.879Z,1016.20
2019-01-18T09:46:21.845Z,1016.21
2019-01-18T09:47:21.809Z,1016.19
2019-01-18T09:48:21.776Z,1016.19
2019-01-18T09:49:21.747Z,1016.20
2019-01-18T09:50:21.707Z,1016.17
2019-01-18T09:51:21.675Z,1016.18
2019-01-18T09:52:21.640Z,1016.24
2019-01-18T09:53:21.606Z,1016.26
2019-01-18T09:54:21.616Z,1016.26
2019-01-18T09:55:21.537Z,1016.29
2019-01-18T09:56:21.505Z,1016.28
2019-01-18T09:57:21.471Z,1016.33
2019-01-18T09:58:21.436Z,1016.26
2019-01-18T09:59:21.403Z,1016.27
2019-01-18T10:00:21.377Z,1016.31
2019-01-18T10:01:21.335Z,1016.35
2019-01-18T10:02:21.302Z,1016.37
2019-01-18T10:03:21.268Z,1016.35
2019-01-18T10:04:21.232Z,1016.42
2019-01-18T10:05:21.199Z,1016.39
2019-01-18T10:06:21.167Z,1016.42
2019-01-18T10:07:21.132Z,1016.46
2019-01-18T10:08:21.099Z,1016.44
2019-01-18T10:09:21.065Z,1016.42
2019-01-18T10:10:21.030Z,1016.40
2019-01-18T10:11:20.996Z,1016.44
2019-01-18T10:12:20.962Z,1016.45
2019-01-18T10:13:20.930Z,1016.43
2019-01-18T10:14:20.896Z,1016.39
2019-01-18T10:15:20.863Z,1016.41
2019-01-18T10:16:20.827Z,1016.41
2019-01-18T10:17:20.794Z,1016.38
2019-01-18T10:18:20.760Z,1016.37
2019-01-18T10:19:20.729Z,1016.42
2019-01-18T10:20:20.694Z,1016.40
2019-01-18T10:21:20.659Z,1016.35
2019-01-18T10:22:20.625Z,1016.40
2019-01-18T10:23:20.591Z,1016.39
2019-01-18T10:24:21.122Z,1016.35
2019-01-18T10:25:20.525Z,1016.40
2019-01-18T10:26:20.491Z,1016.42
2019-01-18T10:27:23.909Z,1016.38
2019-01-18T10:28:20.422Z,1016.39
2019-01-18T10:29:20.390Z,1016.44
2019-01-18T10:30:20.356Z,1016.39
2019-01-18T10:31:20.322Z,1016.40
2019-01-18T10:32:20.287Z,1016.40
2019-01-18T10:33:20.255Z,1016.37
2019-01-18T10:34:20.221Z,1016.37
2019-01-18T10:35:20.186Z,1016.36
2019-01-18T10:36:20.152Z,1016.39
2019-01-18T10:37:20.121Z,1016.37
2019-01-18T10:38:20.086Z,1016.36
2019-01-18T10:39:20.051Z,1016.33
2019-01-18T10:40:20.017Z,1016.31
2019-01-18T10:41:19.983Z,1016.35
2019-01-18T10:42:19.951Z,1016.30
2019-01-18T10:43:19.917Z,1016.36
2019-01-18T10:44:19.882Z,1016.36
2019-01-18T10:45:19.852Z,1016.30
2019-01-18T10:46:19.816Z,1016.33
2019-01-18T10:47:19.782Z,1016.34
2019-01-18T10:48:19.749Z,1016.31
2019-01-18T10:49:19.715Z,1016.29
2019-01-18T10:50:19.680Z,1016.35
2019-01-18T10:51:19.647Z,1016.31
2019-01-18T10:52:19.614Z,1016.31
2019-01-18T10:53:19.579Z,1016.35
2019-01-18T10:54:19.546Z,1016.33
2019-01-18T10:55:19.511Z,1016.34
2019-01-18T10:56:19.478Z,1016.38
2019-01-18T10:57:19.445Z,1016.35
2019-01-18T10:58:19.411Z,1016.34
2019-01-18T10:59:19.377Z,1016.35
2019-01-18T11:00:19.342Z,1016.39
2019-01-18T11:01:19.307Z,1016.37
2019-01-18T11:02:19.276Z,1016.37
2019-01-18T11:03:19.241Z,1016.36
2019-01-18T11:04:19.207Z,1016.39
2019-01-18T11:05:19.173Z,1016.39
2019-01-18T11:06:19.142Z,1016.39
2019-01-18T11:07:19.105Z,1016.40
2019-01-18T11:08:19.071Z,1016.45
2019-01-18T11:09:19.037Z,1016.38
2019-01-18T11:10:19.003Z,1016.38
2019-01-18T11:11:18.969Z,1016.39
2019-01-18T11:12:18.937Z,1016.37
2019-01-18T11:13:18.901Z,1016.40
2019-01-18T11:14:18.869Z,1016.35
2019-01-18T11:15:18.833Z,1016.38
2019-01-18T11:16:18.799Z,1016.35
2019-01-18T11:17:18.766Z,1016.38
2019-01-18T11:18:18.732Z,1016.38
2019-01-18T11:19:18.696Z,1016.34
2019-01-18T11:20:18.662Z,1016.40
2019-01-18T11:21:18.629Z,1016.36
2019-01-18T11:22:18.594Z,1016.39
2019-01-18T11:23:18.559Z,1016.36
2019-01-18T11:24:18.524Z,1016.34
2019-01-18T11:25:18.493Z,1016.39
2019-01-18T11:26:18.457Z,1016.41
2019-01-18T11:27:18.425Z,1016.45
2019-01-18T11:28:18.390Z,1016.38
2019-01-18T11:29:18.355Z,1016.41
2019-01-18T11:30:18.321Z,1016.46
2019-01-18T11:31:18.287Z,1016.41
2019-01-18T11:32:18.252Z,1016.41
2019-01-18T11:33:18.218Z,1016.45
2019-01-18T11:34:18.182Z,1016.42
2019-01-18T11:35:18.147Z,1016.40
2019-01-18T11:36:18.112Z,1016.43
2019-01-18T11:37:18.079Z,1016.37
2019-01-18T11:38:18.043Z,1016.39
2019-01-18T11:39:18.008Z,1016.37
2019-01-18T11:40:18.013Z,1016.39
2019-01-18T11:41:17.941Z,1016.40
2019-01-18T11:42:17.907Z,1016.41
2019-01-18T11:43:17.873Z,1016.37
2019-01-18T11:44:17.837Z,1016.42
2019-01-18T11:45:17.802Z,1016.41
2019-01-18T11:46:17.767Z,1016.46
2019-01-18T11:47:17.732Z,1016.40
2019-01-18T11:48:17.699Z,1016.46
2019-01-18T11:49:17.663Z,1016.42
2019-01-18T11:50:17.629Z,1016.44
2019-01-18T11:51:17.593Z,1016.41
2019-01-18T11:52:17.559Z,1016.46
2019-01-18T11:53:17.525Z,1016.48
2019-01-18T11:54:17.489Z,1016.49
2019-01-18T11:55:17.454Z,1016.45
2019-01-18T11:56:17.420Z,1016.46
2019-01-18T11:57:17.385Z,1016.45
2019-01-18T11:58:17.352Z,1016.40
2019-01-18T11:59:17.316Z,1016.47
2019-01-18T12:00:17.282Z,1016.45
2019-01-18T12:01:17.248Z,1016.53
2019-01-18T12:02:22.020Z,1016.45
2019-01-18T12:03:17.176Z,1016.47
2019-01-18T12:04:17.147Z,1016.46
2019-01-18T12:05:17.114Z,1016.48